Flight Track Log - Related Links

Times and Time Zones

All times are in EDT time to prevent confusion due to time zone crossing. See the UAL4476 flight status page for this flight to view local times or setup timezone preferences in your user account.

Time Position Orientation Groundspeed Altitude Reporting Facility
EDT Latitude Longitude Course Direction KTS MPH feet Rate Location/Type
Mon 08:55:37 AM 41.3981 -81.8869 75° East 178 205 1,600  Level Cleveland Center
Mon 08:57:33 AM 41.4028 -82.0200 273° West 201 231 5,800 2,080 Climbing Cleveland Center
Mon 08:58:33 AM 41.4458 -82.0597 325° Northwest 189 217 7,700 1,736 Climbing Cleveland Center
Mon 08:59:34 AM 41.4969 -81.9775 50° Northeast 154 177 9,300 1,450 Climbing Cleveland Center
Mon 09:00:33 AM 41.5522 -81.8900 50° Northeast 237 273 10,600 1,210 Climbing Cleveland Center
Mon 09:01:00 AM 41.8496 -81.3021 75° East  Level FlightAware Approximate
Mon 09:01:33 AM 41.6161 -81.7831 51° Northeast 312 359 11,700  Level Cleveland Center
Mon 09:02:34 AM 41.6589 -81.6586 65° Northeast 346 398 12,700 992 Climbing Cleveland Center
Mon 09:03:34 AM 41.6853 -81.5200 76° East 372 428 13,700 1,008 Climbing Cleveland Center
Mon 09:04:33 AM 41.7111 -81.3786 76° East 388 447 14,700 1,000 Climbing Cleveland Center
Mon 09:05:34 AM 41.7372 -81.2369 76° East 393 452 15,700 1,000 Climbing Cleveland Center
Mon 09:06:33 AM 41.7650 -81.0925 75° East 393 452 16,700 908 Climbing Cleveland Center
Mon 09:07:33 AM 41.7906 -80.9619 75° East 393 452 17,500 950 Climbing Cleveland Center
Mon 09:08:33 AM 41.8139 -80.8200 78° East 388 447 18,600 1,050 Climbing Cleveland Center
Mon 09:09:33 AM 41.8411 -80.6722 76° East 395 455 19,600 1,000 Climbing Cleveland Center
Mon 09:10:33 AM 41.8683 -80.5275 76° East 395 455 20,600 992 Climbing Cleveland Center
Mon 09:11:34 AM 41.8953 -80.3767 76° East 395 455 21,600 1,000 Climbing Cleveland Center
Mon 09:12:33 AM 41.9239 -80.2147 77° East 395 455 22,600 1,000 Climbing Cleveland Center
Mon 09:13:34 AM 41.9506 -80.0611 77° East 400 460 23,600 942 Climbing Cleveland Center
Mon 09:14:34 AM 41.9747 -79.9269 76° East 408 470 24,500 958 Climbing Cleveland Center
Mon 09:15:33 AM 42.0008 -79.7756 77° East 414 476 25,500 958 Climbing Cleveland Center
Mon 09:16:33 AM 42.0269 -79.6272 77° East 414 476 26,400 950 Climbing Cleveland Center
Mon 09:17:33 AM 42.0525 -79.4758 77° East 414 476 27,400 1,000 Climbing Cleveland Center
Mon 09:18:33 AM 42.0783 -79.3328 76° East 409 471 28,400 1,000 Climbing Cleveland Center
Mon 09:19:33 AM 42.1017 -79.1839 78° East 409 471 29,400 1,000 Climbing Cleveland Center
Mon 09:20:33 AM 42.1267 -79.0378 77° East 403 464 30,400 1,000 Climbing Cleveland Center
Mon 09:21:33 AM 42.1497 -78.8917 78° East 398 458 31,400 1,000 Climbing Cleveland Center
Mon 09:22:33 AM 42.1725 -78.7397 79° East 398 458 32,400 800 Climbing Cleveland Center
Mon 09:23:33 AM 42.2031 -78.5733 76° East 398 458 33,000 300 Climbing Cleveland Center
Mon 09:24:33 AM 42.2294 -78.4156 77° East 411 473 33,000  Level Cleveland Center
Mon 09:25:33 AM 42.2553 -78.2519 78° East 428 493 33,000  Level Cleveland Center
Mon 09:26:33 AM 42.2811 -78.0881 78° East 433 498 33,000  Level Cleveland Center
Mon 09:27:33 AM 42.3067 -77.9244 78° East 438 504 33,000  Level Cleveland Center
Mon 09:28:33 AM 42.3300 -77.7661 79° East 433 498 33,000  Level Cleveland Center
Mon 09:29:33 AM 42.3550 -77.6019 78° East 433 498 33,000  Level Cleveland Center
Mon 09:30:33 AM 42.3800 -77.4406 78° East 433 498 33,000  Level Cleveland Center
Mon 09:32:37 AM 42.4269 -77.1158 79° East 457 526 33,000  Level Boston Center
Mon 09:33:37 AM 42.4483 -76.9514 80° East 457 526 33,000  Level Boston Center
Mon 09:34:37 AM 42.4675 -76.7836 81° East 457 526 33,000  Level Boston Center
Mon 09:35:37 AM 42.4864 -76.6133 81° East 457 526 33,000  Level Boston Center
Mon 09:36:37 AM 42.5028 -76.4425 83° East 457 526 33,000  Level Boston Center
Mon 09:37:37 AM 42.5214 -76.2689 82° East 464 534 33,000  Level Boston Center
Mon 09:38:37 AM 42.5400 -76.0811 82° East 464 534 33,000  Level Boston Center
Mon 09:39:37 AM 42.5578 -75.9103 82° East 464 534 33,000 -50 Level Boston Center
Mon 09:40:38 AM 42.5736 -75.7333 83° East 464 534 32,900  Descending Boston Center
Mon 09:41:38 AM 42.5908 -75.5622 82° East 464 534 33,000 50 Climbing Boston Center
Mon 09:42:37 AM 42.6081 -75.3853 82° East 464 534 33,000  Level Boston Center
Mon 09:43:37 AM 42.6250 -75.2083 83° East 464 534 33,000  Level Boston Center
Mon 09:44:37 AM 42.6417 -75.0342 83° East 464 534 33,000  Level Boston Center
Mon 09:45:37 AM 42.6581 -74.8597 83° East 464 534 33,000  Level Boston Center
Mon 09:46:37 AM 42.6722 -74.6767 84° East 464 534 33,000  Level Boston Center
Mon 09:47:37 AM 42.6881 -74.5050 83° East 464 534 33,000  Level Boston Center
Mon 09:48:37 AM 42.7036 -74.3331 83° East 464 534 33,000  Level Boston Center
Mon 09:49:37 AM 42.7042 -74.1608 90° East 464 534 33,000  Level Boston Center
Mon 09:50:37 AM 42.6922 -73.9825 95° East 459 528 33,000  Level Boston Center
Mon 09:51:37 AM 42.6778 -73.8042 96° East 464 534 33,000  Level Boston Center
Mon 09:52:37 AM 42.6692 -73.6289 94° East 464 534 33,000  Level Boston Center
Mon 09:53:37 AM 42.6564 -73.4536 96° East 464 534 33,000  Level Boston Center
Mon 09:54:37 AM 42.6453 -73.2756 95° East 464 534 33,000 -500 Level Boston Center
Mon 09:55:37 AM 42.6339 -73.1006 95° East 464 534 32,000 -1,300 Descending Boston Center
Mon 09:56:37 AM 42.6181 -72.9311 97° East 475 547 30,400 -1,800 Descending Boston Center
Mon 09:57:37 AM 42.6042 -72.7644 96° East 474 545 28,400 -2,200 Descending Boston Center
Mon 09:58:37 AM 42.5919 -72.5894 95° East 469 540 26,000 -2,400 Descending Boston Center
Mon 09:59:37 AM 42.5817 -72.4514 96° East 463 533 23,600 -2,850 Descending Boston Center
Mon 10:00:37 AM 42.5628 -72.2597 98° East 446 513 20,300 -2,850 Descending Boston Center
Mon 10:01:37 AM 42.5500 -72.1047 96° East 420 483 17,900 -2,450 Descending Boston Center
Mon 10:02:37 AM 42.5369 -71.9583 97° East 407 468 15,400 -2,500 Descending Boston Center
Mon 10:03:37 AM 42.5239 -71.8231 97° East 384 442 12,900 -2,200 Descending Boston Center
Mon 10:04:37 AM 42.5106 -71.6881 98° East 371 427 11,000 -1,267 Descending Boston Center
Mon 10:05:07 AM 42.5000 -71.6000 99° East 356 410 11,000 -563 Level KA90
Mon 10:06:13 AM 42.5000 -71.4667 90° East 304 350 10,100 -905 Descending KA90
Mon 10:07:13 AM 42.4833 -71.3667 103° East 274 315 9,100 -1,000 Descending KA90
Mon 10:08:19 AM 42.4667 -71.2667 103° East 265 305 8,000 -1,050 Descending KA90
Mon 10:09:13 AM 42.4667 -71.1833 90° East 256 295 7,000 -1,476 Descending KA90
Mon 10:10:25 AM 42.4500 -71.0667 101° East 253 291 4,900 -1,736 Descending KA90
Mon 10:11:14 AM 42.4500 -71.0000 90° East 258 297 3,500 -1,105 Descending KA90
Mon 10:12:19 AM 42.4500 -70.8833 90° East 255 293 2,800 -578 Descending KA90
Mon 10:12:37 AM 42.4478 -70.8700 103° East 252 290 2,700 -684 Descending Boston Center
Mon 10:13:38 AM 42.3917 -70.8742 183° South 162 186 1,900 -941 Descending Boston Center
Mon 10:14:19 AM 42.3667 -70.9167 231° Southwest 169 194 1,100 -950 Descending KA90
Mon 10:15:19 AM 42.3667 -70.9667 270° West 136 157 300 3,000 Descending KA90
Mon 10:17:37 AM 42.3625 -71.0267 265° West 111 128 11,000 3,242 Climbing Boston Center
Mon 10:18:37 AM 42.3342 -71.0975 242° Southwest 111 128 11,000  Level Boston Center
Mon 10:20:00 AM 42.3500 -71.0000 270° West  Level FlightAware Approximate
Mon 10:27:00 AM 42.3630 -71.0064 270° West  Level Estimated

Login

Don't have an account? Register now (free) for customized features, flight alerts, and more!